Time;durP1;ratioP1;P1;durP2;ratioP2;P2;SDS_P1;SDS_P2;PMS_P1;PMS_P2;Temp;Humidity;BMP_temperature;BMP_pressure;BME280_temperature;BME280_humidity;BME280_pressure;Samples;Min_cycle;Max_cycle;Signal;HPM_P1;HPM_P2
2022/06/28 00:02:59;;;;;;;0.70;0.70;;;23.60;51.90;;;;;;6202402;28;20518;-68
2022/06/28 00:06:00;;;;;;;0.55;0.55;;;23.60;51.90;;;;;;6201978;28;20117;-68
2022/06/28 00:09:01;;;;;;;1.38;0.55;;;23.60;51.90;;;;;;6179910;28;20762;-68
2022/06/28 00:12:03;;;;;;;1.60;0.52;;;23.60;51.90;;;;;;6177870;28;20034;-68
2022/06/28 00:18:26;;;;;;;0.82;0.65;;;23.70;51.80;;;;;;6179414;28;20471;-68
2022/06/28 00:21:29;;;;;;;0.98;0.70;;;23.70;51.70;;;;;;6161450;28;20050;-68
2022/06/28 00:24:30;;;;;;;0.60;0.60;;;23.70;51.80;;;;;;6161351;28;20376;-68
2022/06/28 00:27:31;;;;;;;1.20;0.80;;;23.70;51.80;;;;;;6180529;28;20041;-69
2022/06/28 00:30:32;;;;;;;1.08;0.60;;;23.70;51.80;;;;;;6184601;28;20118;-68
2022/06/28 00:33:33;;;;;;;1.85;0.85;;;23.70;51.80;;;;;;6197226;28;20062;-68
2022/06/28 00:36:35;;;;;;;0.98;0.70;;;23.70;51.80;;;;;;6182142;28;20034;-68
2022/06/28 00:39:36;;;;;;;1.45;0.70;;;23.70;51.90;;;;;;6171526;28;20105;-68
2022/06/28 00:42:38;;;;;;;2.90;0.90;;;23.60;51.90;;;;;;6161251;28;20038;-68
2022/06/28 00:45:42;;;;;;;1.80;0.55;;;23.60;52.00;;;;;;6145269;28;20039;-68
2022/06/28 00:48:44;;;;;;;2.35;0.80;;;23.60;52.10;;;;;;6145139;28;20035;-68
2022/06/28 00:51:45;;;;;;;2.78;0.75;;;23.60;52.20;;;;;;6177652;28;20038;-68
2022/06/28 00:54:46;;;;;;;1.00;0.60;;;23.60;52.40;;;;;;6145122;28;20073;-68
2022/06/28 00:57:47;;;;;;;2.38;0.75;;;23.60;52.50;;;;;;6160932;28;20041;-68
2022/06/28 01:00:49;;;;;;;1.13;0.90;;;23.50;52.70;;;;;;6160913;28;20034;-68
2022/06/28 01:03:52;;;;;;;0.88;0.60;;;23.50;52.80;;;;;;6172268;28;20100;-69
2022/06/28 01:06:54;;;;;;;3.35;0.82;;;23.40;53.00;;;;;;6175576;28;20044;-68
2022/06/28 01:09:55;;;;;;;0.82;0.80;;;23.40;53.00;;;;;;6179518;28;20137;-68
2022/06/28 01:12:57;;;;;;;2.65;0.63;;;23.40;53.10;;;;;;6174657;28;20474;-68
2022/06/28 01:15:58;;;;;;;0.65;0.65;;;23.40;53.30;;;;;;6181311;28;20125;-68
2022/06/28 01:19:01;;;;;;;2.70;0.80;;;23.30;53.40;;;;;;6166481;28;20105;-68
2022/06/28 01:22:11;;;;;;;2.42;0.70;;;23.30;53.60;;;;;;6164422;28;20050;-68
2022/06/28 01:25:12;;;;;;;1.15;0.70;;;23.20;53.80;;;;;;6153304;28;20027;-68
2022/06/28 01:28:17;;;;;;;1.42;0.90;;;23.20;53.90;;;;;;6152379;28;20121;-68
2022/06/28 01:31:21;;;;;;;0.60;0.60;;;23.10;54.10;;;;;;6153028;28;20035;-68
2022/06/28 01:34:24;;;;;;;6.35;1.00;;;23.10;54.30;;;;;;6168219;28;20109;-68
2022/06/28 01:37:26;;;;;;;1.10;0.82;;;23.10;54.90;;;;;;6152069;28;20101;-68
2022/06/28 01:40:27;;;;;;;3.00;0.75;;;23.00;54.80;;;;;;6170632;28;20334;-68
2022/06/28 01:43:31;;;;;;;3.25;0.90;;;23.00;54.30;;;;;;6158367;28;20056;-68
2022/06/28 01:46:36;;;;;;;1.35;0.90;;;23.00;54.40;;;;;;6172424;28;20368;-68
2022/06/28 01:49:41;;;;;;;3.65;0.75;;;23.00;54.40;;;;;;6153293;28;20027;-68
2022/06/28 01:52:43;;;;;;;1.52;0.98;;;23.00;54.40;;;;;;6153911;28;20472;-67
2022/06/28 01:56:05;;;;;;;4.30;0.80;;;23.00;54.40;;;;;;6136879;29;20098;-68
2022/06/28 01:59:26;;;;;;;0.98;0.70;;;23.00;54.40;;;;;;6149444;29;20043;-68
2022/06/28 02:02:50;;;;;;;2.47;0.75;;;23.00;54.50;;;;;;6149080;28;20047;-68
2022/06/28 02:06:03;;;;;;;1.08;0.70;;;22.90;54.70;;;;;;6149765;29;20027;-68
2022/06/28 02:09:04;;;;;;;1.50;0.95;;;22.90;55.70;;;;;;6125760;29;20119;-68
2022/06/28 02:12:15;;;;;;;4.15;1.00;;;22.80;55.10;;;;;;6119354;29;20051;-68
2022/06/28 02:15:16;;;;;;;2.17;0.80;;;22.80;55.30;;;;;;6133606;29;20067;-68
2022/06/28 02:18:18;;;;;;;0.82;0.82;;;22.80;55.60;;;;;;6118076;29;20031;-68
2022/06/28 02:21:20;;;;;;;2.25;1.00;;;22.70;55.80;;;;;;6133407;29;20110;-68
2022/06/28 02:24:23;;;;;;;2.10;0.75;;;22.60;56.00;;;;;;6118142;29;20128;-68
2022/06/28 02:27:24;;;;;;;4.45;0.80;;;22.60;56.10;;;;;;6129656;29;20054;-69
2022/06/28 02:30:25;;;;;;;3.97;0.82;;;22.50;56.10;;;;;;6128355;29;20036;-69
2022/06/28 02:33:26;;;;;;;4.03;1.15;;;22.50;56.10;;;;;;6150259;28;20054;-70
2022/06/28 02:43:08;;;;;;;1.35;0.70;;;22.70;56.00;;;;;;6175499;28;20051;-68
2022/06/28 02:46:09;;;;;;;0.98;0.80;;;22.70;55.80;;;;;;6173837;28;20049;-67
2022/06/28 02:49:11;;;;;;;1.23;0.80;;;22.80;55.70;;;;;;6161305;28;20524;-68
2022/06/28 02:52:12;;;;;;;0.93;0.82;;;22.80;55.50;;;;;;6174252;28;20101;-68
2022/06/28 02:55:13;;;;;;;2.95;1.00;;;22.80;55.40;;;;;;6167946;28;20037;-68
2022/06/28 02:58:14;;;;;;;1.33;0.98;;;22.80;55.40;;;;;;6173951;28;20034;-68
2022/06/28 03:01:15;;;;;;;1.40;0.70;;;22.90;55.40;;;;;;6177673;28;20133;-68
2022/06/28 03:04:16;;;;;;;1.30;0.95;;;22.90;55.30;;;;;;6178798;28;20038;-68
2022/06/28 03:07:17;;;;;;;3.22;0.70;;;22.90;55.30;;;;;;6161501;28;20089;-68
2022/06/28 03:10:19;;;;;;;0.95;0.88;;;23.00;55.20;;;;;;6142841;28;20368;-68
2022/06/28 03:13:20;;;;;;;0.85;0.85;;;23.00;55.10;;;;;;6160652;28;20046;-68
2022/06/28 03:16:21;;;;;;;2.25;0.77;;;23.10;54.90;;;;;;6161430;28;20038;-68
2022/06/28 03:19:23;;;;;;;1.52;0.90;;;23.10;54.70;;;;;;6154287;28;20054;-68
2022/06/28 03:22:24;;;;;;;2.90;0.75;;;23.20;54.60;;;;;;6162763;28;20051;-69
2022/06/28 03:25:25;;;;;;;3.95;0.88;;;23.10;54.40;;;;;;6155102;28;20519;-68
2022/06/28 03:28:26;;;;;;;0.70;0.70;;;23.10;54.50;;;;;;6154948;28;20027;-68
2022/06/28 03:31:32;;;;;;;0.82;0.82;;;23.00;54.50;;;;;;6155945;28;20042;-68
2022/06/28 03:34:33;;;;;;;3.35;0.88;;;22.90;54.70;;;;;;6154918;28;20091;-68
2022/06/28 03:37:35;;;;;;;2.13;0.98;;;22.80;54.90;;;;;;6159694;28;20034;-68
2022/06/28 03:40:39;;;;;;;1.33;0.85;;;22.80;55.10;;;;;;6161860;28;20026;-68
2022/06/28 03:43:41;;;;;;;3.70;0.80;;;22.80;55.10;;;;;;6177887;28;20030;-68
2022/06/28 03:46:42;;;;;;;1.45;1.10;;;22.80;55.10;;;;;;6163185;28;20453;-68
2022/06/28 03:50:06;;;;;;;0.82;0.77;;;22.80;55.10;;;;;;6146868;29;20039;-68
2022/06/28 03:53:27;;;;;;;1.77;1.00;;;22.80;55.10;;;;;;6152490;29;20114;-68
2022/06/28 03:56:55;;;;;;;1.20;1.00;;;22.80;55.10;;;;;;6139379;29;20390;-68
2022/06/28 03:59:56;;;;;;;4.18;0.80;;;22.80;55.10;;;;;;6136283;29;20080;-68
2022/06/28 04:03:00;;;;;;;1.48;1.00;;;22.80;55.10;;;;;;6136630;29;20389;-68
2022/06/28 04:06:03;;;;;;;2.63;1.05;;;22.80;55.10;;;;;;6167911;28;20046;-68
2022/06/28 04:09:04;;;;;;;1.23;0.70;;;22.80;55.10;;;;;;6136403;29;20031;-69
2022/06/28 04:12:07;;;;;;;1.20;0.85;;;22.80;55.10;;;;;;6136137;29;20027;-69
2022/06/28 04:15:08;;;;;;;1.40;0.93;;;22.80;55.10;;;;;;6135340;29;20063;-69
2022/06/28 04:18:09;;;;;;;1.08;0.80;;;22.80;55.10;;;;;;6152445;29;20287;-69
2022/06/28 04:21:15;;;;;;;1.80;0.85;;;22.80;55.00;;;;;;6150120;29;20103;-69
2022/06/28 04:24:16;;;;;;;4.93;1.00;;;22.80;55.10;;;;;;6096834;29;20126;-69
2022/06/28 04:27:43;;;;;;;3.45;0.80;;;22.80;55.20;;;;;;6143800;29;20046;-69
2022/06/28 04:30:44;;;;;;;2.25;0.90;;;22.80;55.20;;;;;;6153410;28;20027;-69
2022/06/28 04:33:45;;;;;;;1.38;1.15;;;22.80;55.20;;;;;;6152626;29;20031;-69
2022/06/28 04:36:48;;;;;;;2.33;1.10;;;22.80;55.10;;;;;;6152598;29;20349;-69
2022/06/28 04:39:49;;;;;;;1.02;0.90;;;22.90;55.10;;;;;;6152529;28;20460;-69
2022/06/28 04:42:58;;;;;;;2.53;1.08;;;22.90;55.00;;;;;;6137288;29;20346;-69
2022/06/28 04:45:59;;;;;;;2.42;1.30;;;22.90;54.90;;;;;;6152680;28;20046;-69
2022/06/28 04:49:03;;;;;;;3.38;1.20;;;23.00;55.10;;;;;;6135685;29;20050;-71
2022/06/28 04:52:14;;;;;;;8.32;1.30;;;23.00;54.90;;;;;;6120730;29;20118;-69
2022/06/28 04:55:21;;;;;;;5.00;1.20;;;23.10;54.90;;;;;;6129484;29;20038;-69
2022/06/28 04:58:30;;;;;;;0.85;0.85;;;23.10;54.90;;;;;;6142243;28;20047;-68
2022/06/28 05:01:31;;;;;;;1.10;1.00;;;23.10;54.90;;;;;;6151913;29;20098;-68
2022/06/28 05:04:32;;;;;;;1.80;0.95;;;23.00;54.80;;;;;;6151183;28;20034;-68
2022/06/28 05:07:55;;;;;;;5.10;0.90;;;23.00;54.80;;;;;;6135673;28;20130;-68
2022/06/28 05:11:02;;;;;;;1.02;0.82;;;23.00;54.80;;;;;;6140223;29;20422;-68
2022/06/28 05:14:41;;;;;;;3.83;1.40;;;23.00;54.90;;;;;;6076527;29;20119;-69
2022/06/28 05:17:45;;;;;;;1.17;0.98;;;23.10;54.80;;;;;;6064088;29;20036;-68
2022/06/28 05:20:46;;;;;;;3.92;1.00;;;23.10;54.80;;;;;;6064082;29;20486;-70
2022/06/28 05:23:47;;;;;;;0.80;0.80;;;23.10;54.80;;;;;;6062787;29;20095;-68
2022/06/28 05:27:04;;;;;;;2.67;1.10;;;23.10;54.80;;;;;;6075364;29;20048;-68
2022/06/28 05:30:12;;;;;;;2.50;1.30;;;23.10;54.80;;;;;;6079934;29;20225;-68
2022/06/28 05:33:13;;;;;;;1.10;1.00;;;23.20;54.80;;;;;;6051872;29;20045;-68
2022/06/28 05:36:14;;;;;;;2.33;1.25;;;23.20;54.70;;;;;;6075224;29;20123;-69
2022/06/28 05:39:15;;;;;;;4.15;1.15;;;23.30;54.60;;;;;;6057440;29;20033;-68
2022/06/28 05:42:16;;;;;;;1.63;1.15;;;23.30;54.50;;;;;;6094990;29;20123;-69
2022/06/28 05:45:18;;;;;;;5.85;1.17;;;23.30;54.60;;;;;;6102903;29;20066;-69
2022/06/28 05:48:19;;;;;;;5.88;1.02;;;23.30;54.70;;;;;;6130304;28;20035;-69
2022/06/28 05:51:20;;;;;;;1.55;1.23;;;23.30;54.70;;;;;;6151756;28;20053;-69
2022/06/28 05:54:21;;;;;;;1.95;0.90;;;23.30;54.60;;;;;;6150887;29;20735;-69
2022/06/28 05:57:22;;;;;;;1.05;0.90;;;23.40;54.50;;;;;;6133932;29;20032;-69
2022/06/28 06:00:23;;;;;;;2.55;1.17;;;23.50;54.30;;;;;;6111706;29;20059;-68
2022/06/28 06:03:24;;;;;;;4.97;1.77;;;23.60;54.20;;;;;;6111825;29;20040;-69
2022/06/28 06:06:26;;;;;;;4.18;1.33;;;23.70;54.10;;;;;;6127408;29;20035;-69
2022/06/28 06:09:27;;;;;;;2.25;1.20;;;23.70;53.90;;;;;;6127068;29;20031;-69
2022/06/28 06:12:29;;;;;;;1.65;1.00;;;23.90;53.80;;;;;;6149943;29;20098;-68
2022/06/28 06:15:30;;;;;;;2.22;0.98;;;24.00;53.60;;;;;;6134112;29;20063;-68
2022/06/28 06:18:31;;;;;;;2.90;1.00;;;24.10;53.20;;;;;;6150152;28;20031;-68
2022/06/28 06:21:32;;;;;;;1.48;1.00;;;24.10;53.10;;;;;;6142498;28;20109;-68
2022/06/28 06:24:33;;;;;;;2.25;1.08;;;24.10;53.00;;;;;;6176002;28;20030;-68
2022/06/28 06:27:44;;;;;;;1.98;1.10;;;24.10;53.70;;;;;;6172819;28;20038;-68
2022/06/28 06:30:45;;;;;;;10.48;1.52;;;24.10;53.20;;;;;;6181942;28;20026;-69
2022/06/28 06:34:06;;;;;;;3.28;1.27;;;24.10;53.20;;;;;;6199006;28;20356;-69
2022/06/28 06:37:28;;;;;;;4.07;1.00;;;24.20;53.00;;;;;;6188372;28;20040;-68
2022/06/28 06:40:30;;;;;;;11.15;1.48;;;24.30;52.90;;;;;;6186838;28;20423;-69
2022/06/28 06:43:31;;;;;;;5.43;1.15;;;24.30;52.90;;;;;;6169445;28;20137;-69
2022/06/28 06:46:51;;;;;;;5.97;1.27;;;24.20;52.80;;;;;;6203789;28;20121;-69
2022/06/28 06:49:52;;;;;;;1.58;1.27;;;24.30;53.00;;;;;;6174099;28;20041;-67
2022/06/28 06:52:53;;;;;;;3.88;1.50;;;24.30;53.00;;;;;;6201208;28;20031;-69
2022/06/28 06:55:55;;;;;;;4.72;1.17;;;24.30;52.90;;;;;;6186097;28;20543;-69
2022/06/28 06:58:56;;;;;;;9.25;1.75;;;24.50;52.80;;;;;;6185789;28;20487;-71
2022/06/28 07:01:57;;;;;;;2.67;1.50;;;24.60;52.60;;;;;;6203506;28;20030;-69
2022/06/28 07:05:07;;;;;;;5.63;1.40;;;24.70;52.30;;;;;;6180636;28;20031;-70
2022/06/28 07:08:08;;;;;;;3.25;1.30;;;24.80;52.10;;;;;;6167995;28;20045;-68
2022/06/28 07:11:17;;;;;;;2.15;1.15;;;25.00;51.80;;;;;;6171070;28;20186;-69
2022/06/28 07:14:19;;;;;;;3.95;1.08;;;25.30;51.50;;;;;;6186013;28;20597;-68
2022/06/28 07:17:20;;;;;;;3.03;1.25;;;25.50;51.00;;;;;;6185923;28;20404;-69
2022/06/28 07:20:21;;;;;;;2.67;1.50;;;25.70;50.60;;;;;;6175128;28;20400;-68
2022/06/28 07:23:23;;;;;;;3.55;1.35;;;25.90;50.20;;;;;;6160926;28;20046;-68
2022/06/28 07:26:25;;;;;;;6.47;1.30;;;25.90;50.10;;;;;;6178530;28;20046;-68
2022/06/28 07:29:26;;;;;;;8.38;1.80;;;25.90;50.10;;;;;;6175237;28;20031;-69
2022/06/28 07:32:27;;;;;;;3.55;1.30;;;26.00;49.90;;;;;;6157022;28;20449;-68
2022/06/28 07:35:29;;;;;;;7.57;1.60;;;26.10;49.60;;;;;;6154112;28;20038;-68
2022/06/28 07:38:30;;;;;;;4.82;1.77;;;26.20;49.40;;;;;;6174553;28;20145;-70
2022/06/28 07:41:54;;;;;;;2.35;1.35;;;26.40;49.20;;;;;;6178040;28;20043;-68
2022/06/28 07:45:15;;;;;;;1.50;1.05;;;26.40;48.90;;;;;;6121804;29;20040;-69
2022/06/28 07:48:18;;;;;;;2.20;1.40;;;26.50;48.70;;;;;;6097035;29;20055;-68
2022/06/28 07:54:41;;;;;;;3.38;1.30;;;26.50;48.50;;;;;;6128421;29;20918;-69
2022/06/28 07:57:48;;;;;;;4.18;1.88;;;26.70;48.20;;;;;;6106417;29;20099;-68
2022/06/28 08:00:49;;;;;;;3.05;1.40;;;26.70;48.10;;;;;;6110426;29;20035;-69
2022/06/28 08:03:53;;;;;;;3.45;1.30;;;26.60;48.00;;;;;;6128382;29;20039;-69
2022/06/28 08:06:55;;;;;;;2.33;1.40;;;26.70;48.10;;;;;;6095924;29;20501;-68
2022/06/28 08:09:58;;;;;;;5.13;1.10;;;26.70;48.10;;;;;;6111522;29;20043;-68
2022/06/28 08:12:59;;;;;;;4.75;1.60;;;26.60;48.00;;;;;;6112156;29;20032;-68
2022/06/28 08:16:01;;;;;;;4.70;1.52;;;26.50;48.20;;;;;;6112149;29;20050;-69
2022/06/28 08:19:02;;;;;;;1.77;1.20;;;26.40;48.20;;;;;;6095611;29;20039;-68
2022/06/28 08:22:07;;;;;;;2.65;1.27;;;26.40;48.20;;;;;;6142475;28;20058;-68
2022/06/28 08:25:09;;;;;;;4.18;1.50;;;26.50;48.10;;;;;;6176290;28;20411;-69
2022/06/28 08:28:11;;;;;;;5.65;1.25;;;26.60;48.00;;;;;;6175796;28;20034;-69
2022/06/28 08:31:12;;;;;;;3.85;1.48;;;26.80;47.80;;;;;;6176722;28;20067;-70
2022/06/28 08:34:13;;;;;;;11.40;1.30;;;26.90;47.60;;;;;;6159727;28;20037;-69
2022/06/28 08:37:14;;;;;;;1.38;1.20;;;27.00;47.40;;;;;;6175188;28;20041;-69
2022/06/28 08:40:15;;;;;;;2.75;1.17;;;27.10;47.30;;;;;;6140035;28;20182;-69
2022/06/28 08:43:17;;;;;;;2.65;1.42;;;27.10;47.20;;;;;;6152575;28;20042;-69
2022/06/28 08:46:18;;;;;;;1.30;1.20;;;27.20;47.20;;;;;;6152899;28;20475;-69
2022/06/28 08:49:34;;;;;;;5.20;1.50;;;27.10;47.10;;;;;;6160218;28;20094;-68
2022/06/28 08:52:36;;;;;;;6.55;1.27;;;27.20;47.20;;;;;;6176316;28;20033;-70
2022/06/28 08:55:38;;;;;;;3.38;1.50;;;27.20;47.00;;;;;;6176366;28;20031;-68
2022/06/28 08:58:43;;;;;;;6.95;1.50;;;27.30;46.80;;;;;;6158611;28;20034;-69
2022/06/28 09:01:45;;;;;;;7.55;1.75;;;27.40;46.80;;;;;;6159490;28;20065;-70
2022/06/28 09:04:53;;;;;;;2.97;1.33;;;27.50;46.60;;;;;;6166673;28;20039;-69
2022/06/28 09:07:56;;;;;;;9.27;1.80;;;27.60;46.30;;;;;;6169972;28;20045;-69
2022/06/28 09:10:57;;;;;;;3.47;1.20;;;27.80;46.10;;;;;;6173602;28;20030;-70
2022/06/28 09:13:58;;;;;;;2.17;1.60;;;27.90;45.80;;;;;;6154011;28;20039;-70
2022/06/28 09:17:23;;;;;;;2.28;1.20;;;28.00;45.60;;;;;;6151958;28;20093;-69
2022/06/28 09:20:37;;;;;;;5.05;1.30;;;28.00;45.50;;;;;;6151312;28;20090;-68
2022/06/28 09:23:41;;;;;;;4.97;1.58;;;28.10;45.40;;;;;;6170508;28;20054;-68
2022/06/28 09:26:42;;;;;;;5.72;1.42;;;28.20;45.30;;;;;;6175387;28;20395;-69
2022/06/28 09:29:50;;;;;;;4.05;1.35;;;28.20;45.20;;;;;;6157864;28;20543;-69
2022/06/28 09:32:51;;;;;;;4.18;1.27;;;28.20;45.10;;;;;;6152323;28;20058;-69
2022/06/28 09:35:53;;;;;;;8.02;1.50;;;28.30;45.10;;;;;;6160692;28;20030;-70
2022/06/28 09:38:56;;;;;;;7.00;1.40;;;28.30;44.90;;;;;;6163416;28;20031;-70
2022/06/28 09:41:59;;;;;;;3.63;1.70;;;28.50;44.80;;;;;;6152331;28;20369;-70
2022/06/28 09:45:00;;;;;;;4.88;1.73;;;28.50;44.50;;;;;;6157814;28;20047;-69
2022/06/28 09:48:03;;;;;;;2.88;1.40;;;28.50;44.50;;;;;;6151321;28;20441;-69
2022/06/28 09:51:04;;;;;;;3.40;1.80;;;28.60;44.40;;;;;;6138692;28;20122;-69
2022/06/28 09:54:10;;;;;;;5.13;1.17;;;28.60;44.20;;;;;;6175216;28;20031;-69
2022/06/28 09:57:12;;;;;;;4.88;1.77;;;28.60;44.10;;;;;;6157996;28;20062;-69
2022/06/28 10:00:16;;;;;;;3.13;1.40;;;28.50;44.00;;;;;;6168745;28;20372;-69
2022/06/28 10:03:18;;;;;;;4.03;1.52;;;28.60;44.00;;;;;;6173992;28;20042;-69
2022/06/28 10:06:21;;;;;;;6.15;1.65;;;28.70;44.00;;;;;;6174683;28;20041;-69
2022/06/28 10:09:22;;;;;;;11.52;2.33;;;28.70;43.90;;;;;;6148342;28;20122;-69
2022/06/28 10:16:04;;;;;;;5.72;1.70;;;28.80;43.80;;;;;;6162423;28;20090;-69
2022/06/28 10:19:06;;;;;;;3.65;1.67;;;28.80;43.90;;;;;;6151343;28;20035;-69
2022/06/28 10:22:10;;;;;;;5.15;1.55;;;28.80;43.90;;;;;;6134736;28;20051;-71
2022/06/28 10:25:17;;;;;;;3.95;1.48;;;28.80;44.10;;;;;;6144076;28;20117;-69
2022/06/28 10:28:34;;;;;;;12.20;1.77;;;28.70;44.40;;;;;;6150581;28;20434;-69
2022/06/28 10:31:39;;;;;;;5.13;1.42;;;28.70;44.50;;;;;;6150157;28;20115;-71
2022/06/28 10:34:52;;;;;;;2.25;1.45;;;28.60;44.60;;;;;;6151609;28;20054;-70
2022/06/28 10:38:08;;;;;;;5.95;1.50;;;28.60;44.80;;;;;;6153257;28;20046;-69
2022/06/28 10:41:14;;;;;;;5.32;1.42;;;28.60;44.80;;;;;;6174312;28;20042;-70
2022/06/28 10:44:45;;;;;;;2.92;1.50;;;28.40;44.90;;;;;;6174554;28;20035;-69
2022/06/28 10:48:07;;;;;;;6.00;1.40;;;28.30;45.00;;;;;;6173369;28;20034;-68
2022/06/28 10:51:08;;;;;;;1.73;1.20;;;28.30;45.10;;;;;;6167451;28;20034;-70
2022/06/28 10:54:15;;;;;;;2.92;1.33;;;28.20;45.20;;;;;;6166929;28;20129;-70
2022/06/28 10:57:22;;;;;;;7.18;1.80;;;28.10;45.30;;;;;;6157498;28;20491;-69
2022/06/28 11:00:26;;;;;;;1.98;1.30;;;28.20;45.30;;;;;;6172902;28;20027;-69
2022/06/28 11:03:28;;;;;;;1.42;1.30;;;28.30;45.10;;;;;;6171991;28;20129;-69
2022/06/28 11:06:44;;;;;;;3.70;1.63;;;28.40;44.90;;;;;;6154614;28;20102;-69
2022/06/28 11:09:52;;;;;;;3.38;1.77;;;28.30;44.80;;;;;;6174226;28;20061;-69
2022/06/28 11:12:53;;;;;;;;;;;28.40;44.80;;;;;;6167439;28;20050;-69
2022/06/28 11:15:54;;;;;;;4.13;1.40;;;28.40;44.60;;;;;;6150686;28;19914;-70
2022/06/28 11:19:06;;;;;;;3.58;1.30;;;28.50;44.40;;;;;;6149997;28;20027;-69
2022/06/28 11:22:08;;;;;;;1.48;1.27;;;28.60;44.30;;;;;;6137748;28;20051;-69
2022/06/28 11:25:17;;;;;;;4.35;1.33;;;28.50;44.30;;;;;;6154317;28;20038;-68
2022/06/28 11:28:19;;;;;;;4.03;1.42;;;28.50;44.20;;;;;;6154913;28;20342;-70
2022/06/28 11:31:20;;;;;;;1.60;1.27;;;28.40;44.20;;;;;;6161303;28;20030;-70
2022/06/28 11:34:25;;;;;;;1.77;1.30;;;28.50;44.30;;;;;;6178371;28;20114;-69
2022/06/28 11:37:28;;;;;;;5.95;1.42;;;28.40;44.50;;;;;;6162203;28;20062;-68
2022/06/28 11:40:51;;;;;;;9.05;1.58;;;28.40;44.50;;;;;;6173896;28;20031;-69
2022/06/28 11:43:58;;;;;;;7.10;1.45;;;28.40;44.50;;;;;;6160690;28;20061;-69
2022/06/28 11:46:59;;;;;;;5.50;1.70;;;28.70;44.20;;;;;;6173226;28;20054;-69
2022/06/28 11:50:18;;;;;;;5.03;1.20;;;28.70;43.90;;;;;;6177386;28;20083;-69
2022/06/28 11:53:21;;;;;;;5.00;1.40;;;28.80;43.70;;;;;;6154598;28;20118;-69
2022/06/28 11:56:22;;;;;;;3.72;1.30;;;28.80;43.40;;;;;;6153393;28;20111;-73
2022/06/28 11:59:56;;;;;;;2.28;1.60;;;29.00;43.20;;;;;;6162165;28;20027;-70
2022/06/28 12:03:03;;;;;;;2.55;1.33;;;29.10;42.90;;;;;;6176678;28;20114;-70
2022/06/28 12:06:04;;;;;;;1.63;1.38;;;29.20;42.80;;;;;;6176553;28;20030;-69
2022/06/28 12:09:08;;;;;;;3.03;1.50;;;29.30;42.40;;;;;;6177470;28;20376;-69
2022/06/28 12:12:09;;;;;;;5.07;1.58;;;29.20;42.30;;;;;;6177254;28;20364;-70
2022/06/28 12:15:10;;;;;;;2.63;1.25;;;29.00;42.40;;;;;;6176995;28;20134;-69
2022/06/28 12:18:11;;;;;;;8.85;1.45;;;28.90;42.60;;;;;;6177393;28;20035;-69
2022/06/28 12:21:12;;;;;;;1.27;1.15;;;28.90;42.70;;;;;;6157088;28;20031;-69
2022/06/28 12:24:14;;;;;;;3.92;2.28;;;29.00;42.80;;;;;;6163746;28;20106;-69
2022/06/28 12:27:17;;;;;;;1.80;1.10;;;29.70;41.90;;;;;;6160763;28;20054;-70
2022/06/28 12:30:19;;;;;;;1.40;1.30;;;30.30;40.90;;;;;;6161002;28;20027;-69
2022/06/28 12:33:20;;;;;;;5.75;1.33;;;30.30;40.50;;;;;;6178261;28;20352;-69
2022/06/28 12:36:21;;;;;;;7.88;1.42;;;29.90;41.60;;;;;;6161922;28;20045;-70
2022/06/28 12:39:22;;;;;;;20.63;1.92;;;29.50;41.60;;;;;;6190991;28;20104;-70
2022/06/28 12:42:26;;;;;;;1.88;1.48;;;29.20;42.10;;;;;;6183751;28;20085;-69
2022/06/28 12:45:29;;;;;;;3.33;1.50;;;29.10;42.20;;;;;;6184010;28;20042;-69
2022/06/28 12:48:32;;;;;;;3.58;1.30;;;29.30;42.10;;;;;;6167015;28;20251;-70
2022/06/28 12:51:33;;;;;;;2.42;1.35;;;29.30;41.90;;;;;;6200753;28;20037;-69
2022/06/28 12:54:34;;;;;;;3.70;1.48;;;29.30;41.90;;;;;;6165944;28;20107;-69
2022/06/28 12:57:36;;;;;;;5.78;1.70;;;29.40;41.80;;;;;;6160472;28;20084;-69
2022/06/28 13:00:36;;;;;;;3.33;1.33;;;29.80;41.10;;;;;;6160211;28;20469;-69
2022/06/28 13:03:38;;;;;;;1.90;1.30;;;29.90;40.80;;;;;;6183697;28;20479;-70
2022/06/28 13:06:42;;;;;;;2.25;1.75;;;29.80;41.00;;;;;;6183768;28;20022;-69
2022/06/28 13:09:44;;;;;;;3.17;1.30;;;29.70;41.10;;;;;;6199865;28;20041;-69
2022/06/28 13:12:45;;;;;;;5.70;1.50;;;29.70;41.10;;;;;;6183140;28;20057;-70
2022/06/28 13:15:47;;;;;;;5.15;1.27;;;29.50;41.20;;;;;;6166136;28;20456;-69
2022/06/28 13:18:48;;;;;;;3.88;1.42;;;29.20;41.60;;;;;;6200220;28;20056;-69
2022/06/28 13:21:49;;;;;;;1.27;1.08;;;29.00;41.90;;;;;;6199940;28;20046;-69
2022/06/28 13:24:50;;;;;;;1.55;1.08;;;28.70;42.30;;;;;;6182220;28;20108;-68
2022/06/28 13:27:51;;;;;;;1.30;1.20;;;28.40;42.80;;;;;;6182063;28;20044;-69
2022/06/28 13:30:52;;;;;;;3.15;1.40;;;28.20;43.30;;;;;;6181672;28;20435;-70
2022/06/28 13:33:55;;;;;;;7.72;1.52;;;28.10;43.50;;;;;;6182080;28;20057;-69
2022/06/28 13:37:00;;;;;;;1.17;1.08;;;28.00;43.70;;;;;;6171200;28;20039;-69
2022/06/28 13:40:01;;;;;;;2.75;1.40;;;27.90;43.90;;;;;;6162539;28;20092;-68
2022/06/28 13:43:32;;;;;;;2.97;1.30;;;27.80;44.10;;;;;;6169966;28;20030;-69
2022/06/28 13:46:23;;;;;;;3.55;1.50;;;27.80;44.40;;;;;;6182321;28;20118;-69
2022/06/28 13:49:25;;;;;;;1.48;1.38;;;27.80;44.40;;;;;;6198898;28;20030;-68
2022/06/28 13:52:27;;;;;;;1.52;1.42;;;27.70;44.70;;;;;;6165754;28;20418;-71
2022/06/28 13:55:28;;;;;;;5.55;1.60;;;27.70;44.80;;;;;;6175170;28;20123;-70
2022/06/28 13:58:30;;;;;;;2.22;1.27;;;27.60;45.00;;;;;;6162691;28;20031;-69
2022/06/28 14:01:32;;;;;;;4.47;1.35;;;27.50;45.30;;;;;;6190306;28;20384;-70
2022/06/28 14:04:33;;;;;;;1.75;1.30;;;27.40;45.60;;;;;;6166003;28;20031;-69
2022/06/28 14:07:34;;;;;;;6.43;1.63;;;27.40;45.80;;;;;;6181883;28;20037;-71
2022/06/28 14:10:35;;;;;;;3.03;1.38;;;27.40;45.80;;;;;;6181377;28;20117;-70
2022/06/28 14:13:39;;;;;;;3.92;1.30;;;27.40;46.00;;;;;;6180698;28;20364;-69
2022/06/28 14:16:40;;;;;;;1.33;1.20;;;27.30;46.00;;;;;;6199268;28;20066;-69
2022/06/28 14:19:41;;;;;;;2.60;1.30;;;27.30;46.10;;;;;;6165590;28;20030;-68
2022/06/28 14:22:41;;;;;;;5.50;1.33;;;27.30;46.40;;;;;;6153607;28;20051;-70
2022/06/28 14:25:43;;;;;;;1.50;1.35;;;27.20;46.40;;;;;;6173115;28;20321;-69
2022/06/28 14:28:44;;;;;;;4.63;1.30;;;27.20;46.60;;;;;;6173308;28;20034;-69
2022/06/28 14:31:45;;;;;;;4.13;1.80;;;27.30;46.70;;;;;;6174653;28;20041;-69
2022/06/28 14:34:47;;;;;;;1.95;1.70;;;27.20;46.60;;;;;;6153894;28;20035;-69
2022/06/28 14:37:48;;;;;;;2.33;1.20;;;27.30;46.80;;;;;;6154272;28;20121;-69
2022/06/28 14:40:50;;;;;;;2.50;1.40;;;27.30;46.80;;;;;;6157422;28;20039;-70
2022/06/28 14:43:51;;;;;;;6.03;1.65;;;27.20;46.90;;;;;;6174289;28;20054;-68
2022/06/28 14:46:52;;;;;;;7.95;1.40;;;27.20;47.00;;;;;;6157395;28;20130;-68
2022/06/28 14:49:54;;;;;;;3.00;1.48;;;27.20;47.00;;;;;;6173438;28;20026;-69
2022/06/28 14:52:55;;;;;;;4.68;1.27;;;27.20;47.10;;;;;;6173945;28;20102;-71
2022/06/28 14:55:56;;;;;;;3.72;1.52;;;27.20;47.10;;;;;;6159515;28;20023;-68
2022/06/28 14:58:58;;;;;;;1.48;1.33;;;27.20;47.10;;;;;;6174757;28;20094;-70
2022/06/28 15:01:59;;;;;;;1.75;1.33;;;27.20;47.20;;;;;;6161599;28;20106;-69
2022/06/28 15:05:00;;;;;;;6.32;1.70;;;27.30;47.20;;;;;;6155642;28;20043;-69
2022/06/28 15:08:01;;;;;;;4.57;2.30;;;27.30;47.10;;;;;;6178921;28;20471;-71
2022/06/28 15:11:02;;;;;;;2.85;1.38;;;27.30;47.10;;;;;;6178154;28;20076;-68
2022/06/28 15:14:03;;;;;;;3.97;1.38;;;27.40;47.10;;;;;;6177438;28;20125;-69
2022/06/28 15:17:05;;;;;;;7.60;1.63;;;27.40;47.10;;;;;;6177415;28;20030;-68
2022/06/28 15:20:06;;;;;;;1.77;1.40;;;27.40;47.10;;;;;;6177602;28;20034;-69
2022/06/28 15:33:07;;;;;;;1.25;1.15;;;27.40;46.80;;;;;;6178510;28;20027;-68
2022/06/28 15:36:08;;;;;;;2.15;1.20;;;27.40;47.00;;;;;;6177058;28;20125;-68
2022/06/28 15:39:09;;;;;;;2.55;1.60;;;27.40;47.00;;;;;;6159328;28;20031;-68
2022/06/28 15:42:10;;;;;;;6.28;1.52;;;27.50;47.00;;;;;;6176920;28;20031;-69
2022/06/28 15:45:12;;;;;;;4.65;1.60;;;27.50;47.10;;;;;;6160696;28;20030;-70
2022/06/28 15:48:13;;;;;;;3.88;1.48;;;27.50;47.10;;;;;;6177921;28;20034;-69
2022/06/28 15:51:15;;;;;;;1.83;1.30;;;27.50;47.20;;;;;;6176818;28;20034;-69
2022/06/28 15:54:16;;;;;;;2.45;1.38;;;27.50;47.20;;;;;;6172458;28;20094;-70
2022/06/28 15:57:17;;;;;;;3.25;1.48;;;27.50;47.20;;;;;;6159391;28;20090;-69
2022/06/28 16:00:20;;;;;;;1.55;1.40;;;27.50;47.20;;;;;;6153313;28;20038;-69
2022/06/28 16:03:21;;;;;;;1.80;1.30;;;27.50;47.20;;;;;;6168493;28;20046;-68
2022/06/28 16:06:22;;;;;;;5.10;1.45;;;27.50;47.30;;;;;;6176113;28;20045;-70
2022/06/28 16:09:24;;;;;;;1.83;1.50;;;27.50;47.50;;;;;;6147855;28;20098;-69
2022/06/28 16:15:45;;;;;;;2.53;1.50;;;27.40;47.40;;;;;;6177360;28;20035;-69
2022/06/28 16:18:46;;;;;;;3.00;1.40;;;27.50;47.30;;;;;;6162814;28;20075;-68
2022/06/28 16:21:47;;;;;;;5.05;1.52;;;27.40;47.20;;;;;;6163291;28;20058;-68
2022/06/28 16:24:48;;;;;;;3.72;1.17;;;27.40;47.20;;;;;;6177977;28;20093;-69
2022/06/28 16:27:51;;;;;;;6.57;1.30;;;27.40;47.30;;;;;;6161749;28;20058;-68
2022/06/28 16:30:52;;;;;;;1.80;1.40;;;27.40;47.20;;;;;;6169441;28;20389;-68